CYAW

Shearwater Airport

Shearwater, Canada
METAR CYAW 232000Z 09012KT 2SM BR OVC007 02/02 A3004 RMK SF8 DA-1452FT LAST OBS/NEXT 241100 UTC SLP177
Observed Flight Rules
Jan-23 @ 20:00 UTC (10 hours ago) Instrument Flight Rules
Wind Visibility Clouds Conditions
90° at 12 knots 2 miles
  • Overcast at 700' AGL
  • Mist
Temperatures Readings
Current 2°C / 36°F
Dewpoint 2°C / 36°F
Humidity 100%
Altimeter 30.04" Hg
Pressure 1017.7 hPa
Elevation 51
METAR CYAW 232000Z 09012KT 2SM BR OVC007 02/02 A3004 RMK SF8 DA-1452FT LAST OBS/NEXT 241100 UTC SLP177
Observed Flight Rules
Jan-23 @ 20:00 UTC
(10 hours ago)
IFR
Wind Visibility
90° at 12 knots 2 miles
Clouds
  • Overcast at 700' AGL
Conditions
  • Mist
Temperature Dewpoint
2°C / 36°F 2°C / 36°F
Humidity Altimeter Pressure
100% 30.04" Hg 1017.7 hPa